METAR Data
IDs: Format: Raw Decoded Include TAF

Data at: 0255 UTC 05 Jun 2020

KFAM 050156Z AUTO 00000KT 10SM CLR 23/20 A2985 RMK AO2 SLP112 T02280200
KFAM 050056Z AUTO 30003KT 10SM CLR 26/20 A2984 RMK AO2 SLP107 T02560200
KFAM 042356Z AUTO 34004KT 10SM CLR 26/20 A2983 RMK AO2 SLP103 T02560200 10272 20233 53003
KFAM 042345Z AUTO 34004KT 10SM FEW002 26/20 A2982 RMK AO2
KFAM 042256Z AUTO 30006KT 10SM FEW035 26/20 A2982 RMK AO2 SLP100 T02610200
KFAM 042156Z AUTO 31005KT 10SM BKN038 27/19 A2982 RMK AO2 SLP100 T02670194
KFAM 042056Z AUTO 31004KT 10SM CLR 27/19 A2982 RMK AO2 SLP098 T02720194 56013
KFAM 041956Z AUTO 36006KT 10SM BKN035 27/21 A2983 RMK AO2 SLP102 T02670206
KFAM 041856Z AUTO 11004KT 10SM SCT075 OVC090 24/20 A2984 RMK AO2 SLP106 T02440200
KFAM 041756Z AUTO 34005KT 10SM BKN065 BKN080 23/19 A2986 RMK AO2 SLP114 60001 T02330194 10233 20194 50012
KFAM 041656Z AUTO 00000KT 10SM BKN070 OVC095 22/19 A2987 RMK AO2 RAE05 SLP119 P0000 T02220194
KFAM 041556Z AUTO 31004KT 10SM -RA OVC040 21/20 A2986 RMK AO2 RAB08 SLP115 P0000 T02110200
KFAM 041533Z AUTO 28004KT 10SM -RA OVC033 21/19 A2986 RMK AO2 RAB08 P0000
KFAM 041456Z AUTO 07003KT 10SM BKN027 21/19 A2982 RMK AO2 RAE29 SLP100 P0001 60001 T02060194 58009
KFAM 041404Z AUTO 16005KT 10SM -RA SCT023 BKN027 OVC060 20/19 A2987 RMK AO2 P0000
KFAM 041356Z AUTO 14006KT 10SM -RA SCT023 BKN060 BKN110 20/19 A2987 RMK AO2 RAB42 SLP118 P0000 T02000194
KFAM 041256Z AUTO 00000KT 10SM SCT120 20/18 A2986 RMK AO2 RAE14 SLP114 P0000 T02000183
KFAM 041156Z AUTO 19005KT 10SM -RA FEW050 SCT085 SCT110 19/19 A2985 RMK AO2 SLP110 P0002 60016 70221 T01890189 10206 20189 56004
KFAM 041056Z AUTO 19005KT 7SM -RA FEW060 OVC090 19/19 A2986 RMK AO2 SLP114 P0005 T01890189
KFAM 040956Z AUTO 19003KT 7SM RA OVC090 19/19 A2984 RMK AO2 SLP102 P0007 T01890189
KFAM 040856Z AUTO 21008KT 10SM -RA SCT075 BKN090 OVC110 20/19 A2986 RMK AO2 LTG DSNT SE RAB0758 SLP110 P0002 60002 T02000194 51002
KFAM 040756Z AUTO 00000KT 10SM FEW070 20/20 A2986 RMK AO2 LTG DSNT SW AND W RAB21E56 SLP110 P0000 T02000200
KFAM 040656Z AUTO 18004KT 10SM BKN043 20/20 A2987 RMK AO2 SLP112 T02000200
KFAM 040556Z AUTO 05003KT 10SM CLR 20/20 A2986 RMK AO2 SLP109 60012 T02000200 10228 20200 403220178 50001
KFAM 040456Z AUTO 22007KT 10SM CLR 20/19 A2987 RMK AO2 SLP113 T02000194
KFAM 040356Z AUTO 18007KT 10SM CLR 20/20 A2986 RMK AO2 SLP112 T02000200
KFAM 040256Z AUTO 18008KT 10SM CLR 20/20 A2985 RMK AO2 SLP111 60012 T02000200 55005
KFAM 040156Z AUTO 18010KT 10SM CLR 21/20 A2983 RMK AO2 SLP103 T02060200
KFAM 040056Z AUTO VRB03KT 10SM CLR 23/20 A2985 RMK AO2 LTG DSNT N TSE21RAE22 SLP110 P0012 T02280200
KFAM 040027Z AUTO 25006KT 10SM FEW035 22/21 A2985 RMK AO2 LTG DSNT N TSE21RAE22 P0012
KFAM 040015Z AUTO 21008KT 10SM -TSRA FEW010 SCT017 BKN035 22/21 A2986 RMK AO2 P0012
KFAM 040003Z AUTO 22017G26KT TS SCT008 BKN017 OVC035 22/21 A2985 RMK AO2 LTG DSNT N AND E RAE00 PRESFR P0012
KFAM 032356Z AUTO 20016G40KT 1/2SM +TSRA SCT008 BKN014 OVC035 22/18 A2987 RMK AO2 PK WND 18057/2343 LTG DSNT N AND E PRESFR SLP117 P0193 60193 T02220183 10322 20211 53006
KFAM 032349Z AUTO 20028G57KT 3/4SM +TSRA SQ BKN008 BKN016 OVC035 21/18 A2986 RMK AO2 PK WND 18057/2343 LTG DSNT N AND E CIG 005V011 PRESFR P0159
KFAM 032337Z AUTO 20012G28KT 3/4SM +TSRA BR BKN008 OVC018 22/21 A2992 RMK AO2 PK WND 19031/2311 LTG DSNT N AND E AND S CIG 005V011 P0110
KFAM 032329Z AUTO 20021G30KT 1SM +TSRA BR FEW008 BKN019 OVC031 22/21 A2992 RMK AO2 PK WND 19031/2311 LTG DSNT E-S PRESRR P0070
KFAM 032327Z AUTO 20019G30KT 1 1/4SM +TSRA BR FEW010 BKN019 OVC031 22/21 A2991 RMK AO2 PK WND 19031/2311 LTG DSNT E-S PRESRR P0062
KFAM 032320Z AUTO 20019G25KT 1SM +TSRA BR SCT015 BKN031 OVC049 22/21 A2990 RMK AO2 PK WND 19031/2311 LTG DSNT E-SW PRESRR P0027
KFAM 032313Z AUTO 19022G30KT 1 3/4SM +TSRA FEW015 BKN029 OVC049 24/22 A2989 RMK AO2 PK WND 19031/2311 LTG DSNT E-SW PRESRR P0012
KFAM 032256Z AUTO 18009KT 10SM -TSRA BKN049 28/23 A2986 RMK AO2 LTG DSNT SE-SW TSB27RAB43 SLP112 P0000 T02830228
KFAM 032233Z AUTO 19006KT 10SM VCTS SCT049 BKN065 BKN120 29/23 A2986 RMK AO2 LTG DSNT SW TSB27
KFAM 032156Z AUTO 16007KT 10SM SCT050 BKN060 31/22 A2984 RMK AO2 LTG DSNT SW SLP105 T03060222
KFAM 032056Z AUTO 18007KT 10SM CLR 32/22 A2985 RMK AO2 SLP107 T03170222 58030
KFAM 031956Z AUTO 19005KT 10SM FEW050 32/21 A2988 RMK AO2 LTG DSNT SE TSB30E54 SLP117 T03170206
KFAM 031936Z AUTO VRB03KT 10SM VCTS FEW060 SCT075 31/21 A2989 RMK AO2 LTG DSNT SE TSB30
KFAM 031856Z AUTO 24007KT 10SM SCT047 BKN060 30/21 A2992 RMK AO2 SLP130 T03000206
KFAM 031756Z AUTO 00000KT 10SM SCT039 BKN055 29/21 A2994 RMK AO2 SLP138 T02940211 10306 20189 58015
KFAM 031656Z AUTO 28005KT 10SM BKN037 29/22 A2996 RMK AO2 SLP145 T02940217
KFAM 031556Z AUTO 23004KT 10SM FEW050 28/22 A2998 RMK AO2 SLP150 T02830222
KFAM 031456Z AUTO 28007KT 10SM SCT043 27/21 A2999 RMK AO2 SLP153 T02670206 58003